Portada
METAR-TAF:

METAR-TAF

Aeropuertos :

Turaif, Arabia Saudita

latitud: 31-41N, longitud: 038-44E, altitud: 813 m

Observación

El informe se hizo hace 23 minutos, a las 12:00 UTC
Viento 12 kt del oeste
Temperatura 30°C
Humedad 38%
Presión 1009 hPa
Visibilidad 10 km o más
sin nubes por debajo de 1500 m y sin presencia de cumulonimbus.

METAR: OETR 231200Z 26012KT CAVOK 30/14 Q1009 NOSIG

Hora: 15:23 (12:23 UTC)

Pronóstico

El informe se hizo hace 1 hora y 23 minutos, a las 11:00 UTC
Pronóstico válido del 23 a las 12 UTC al 24 a las 18 UTC
Viento 16 kt del oeste
Visibilidad 10 km o más
sin nubes por debajo de 1500 m y sin presencia de cumulonimbus.

TAF: OETR 231100Z 2312/2418 28016KT CAVOK

Observaciones y pronósticos meteorológicos de más de 4000 aeropuertos (mensajes METAR y TAF).

Los puntos amarillos y rojos representan las estaciones disponibles.

Ponga el ratón en el punto deseado para ver el nombre de la estación.

Haga clic para ver las observaciones y los pronósticos meteorológicos.

Para cambiar el mapa : haga clic en los botones verdes con una cruz de color negro para hacer un zoom, en el botón verde con un guión para alejar o en las flechas verdes para mapas adyacentes.


METAR-TAF: